Hlavní strana
METAR-TAF:

METAR-TAF

Letiště :

Mezinárodní letiště Zvartnots

Jerevan, Arménie

zeměpisná šířka: 40-08-50N, zeměpisná délka: 044-23-45E, výška: 865 m

Aktuální stav počasí

Zpráva byla vytvořena před 36 minutami, v 02:30 UTC
Bezvětří
Teplota 3°C
Vlhkost vzduchu 87%
Tlak 1013 hPa
Viditelnost: 3500 m
Oblačno až skoro zataženo ve výšce 4300 ft
kouřmo

METAR: UDYZ 200230Z 00000KT 3500 BR BKN043 03/01 Q1013 R09/010070 NOSIG

Čas: 07:06 (03:06 UTC)

Předpověď počasí

Zpráva byla vytvořena před 3 hodinami a 59 minutami, v 23:07 UTC
Předpověď platná od 20 v 00 UTC do 20 v 24 UTC
Jihojihovýchodní vítr 6 kt
Viditelnost: 6000 m
Oblačno až skoro zataženo ve výšce 4000 ft
Dočasný
od 20 v 00 UTC do 20 v 12 UTC
Viditelnost: 2000 m
Zataženo ve výšce 1000 ft
déšť, sníh, kouřmo

TAF: UDYZ 192307Z 2000/2024 16006KT 6000 BKN040 TEMPO 2000/2012 2000 RASN BR OVC010

Stav a předpovědi počasí z více než 4 000 letišť (zprávy METAR a TAF).

Červené a žluté tečky na mapě představují dostupné meteorologické stanice.

Když kurzor umístíte na tečku, zobrazí se název stanice.

Pak kliknutím zobrazíte stav a předpověď počasí.

Chcete-li změnit mapu, kliknutím na zelené tlačítko se znaménkem +mapu přiblížíte, kliknutím na zelené tlačítko se znaménkem – mapu oddálíte a kliknutím na zelené šipky přejdete na sousední mapy.


METAR-TAF: